TAF and METAR

METAR for Teniente R. Marsh Airport

SCRM 061200Z 27015KT 0200 FG VV001 M02/M02 Q0987 NOSIG
Report created 6. aug 14:00
wind 15 knots from W (270°) visibility 200 meters fog vertical visibility 100 feet Temperature -2° with dewpoint at -2° (Humidity 100.00%) Pressure 987 hPa no significant weather change expected the next couple of hours
No TAF available for Teniente R. Marsh Airport